Time;durP1;ratioP1;P1;durP2;ratioP2;P2;SDS_P1;SDS_P2;PMS_P1;PMS_P2;Temp;Humidity;BMP_temperature;BMP_pressure;BME280_temperature;BME280_humidity;BME280_pressure;Samples;Min_cycle;Max_cycle;Signal;HPM_P1;HPM_P2
2023/03/12 00:00:29;;;;;;;;;;;;;;;;;;1041467;28;3834;-48
2023/03/12 00:01:21;;;;;;;;;;;;;;;;;;1045184;28;3866;-49
2023/03/12 00:01:51;;;;;;;;;;;;;;;;;;1045408;28;2803;-50
2023/03/12 00:02:22;;;;;;;;;;;;;;;;;;1045665;28;4051;-49
2023/03/12 00:02:52;;;;;;;;;;;;;;;;;;1043116;28;1975;-49
2023/03/12 00:03:22;;;;;;;;;;;;;;;;;;1042263;28;4114;-50
2023/03/12 00:03:55;;;;;;;;;;;;;;;;;;1042081;28;2232;-49
2023/03/12 00:04:26;;;;;;;;;;;;;;;;;;1041463;28;3936;-49
2023/03/12 00:04:56;;;;;;;;;;;;;;;;;;1042638;28;2221;-50
2023/03/12 00:05:26;;;;;;;;;;;;;;;;;;1041741;28;4059;-53
2023/03/12 00:05:57;;;;;;;;;;;;;;;;;;1041687;28;2617;-49
2023/03/12 00:06:27;;;;;;;;;;;;;;;;;;1041458;28;3871;-50
2023/03/12 00:06:57;;;;;;;;;;;;;;;;;;1042181;28;2401;-49
2023/03/12 00:07:27;;;;;;;;;;;;;;;;;;1040862;28;3847;-50
2023/03/12 00:07:58;;;;;;;;;;;;;;;;;;1041606;28;2561;-51
2023/03/12 00:08:29;;;;;;;;;;;;;;;;;;1041773;28;3870;-49
2023/03/12 00:09:00;;;;;;;;;;;;;;;;;;1042480;28;1738;-51
2023/03/12 00:09:33;;;;;;;;;;;;;;;;;;1040700;28;3769;-48
2023/03/12 00:10:04;;;;;;;;;;;;;;;;;;1041541;28;2808;-51
2023/03/12 00:10:36;;;;;;;;;;;;;;;;;;1042569;28;4097;-49
2023/03/12 00:11:08;;;;;;;;;;;;;;;;;;1042443;28;2736;-49
2023/03/12 00:11:38;;;;;;;;;;;;;;;;;;1042160;28;3823;-48
2023/03/12 00:12:08;;;;;;;;;;;;;;;;;;1042472;28;2321;-47
2023/03/12 00:12:38;;;;;;;;;;;;;;;;;;1041790;28;3868;-48
2023/03/12 00:13:09;;;;;;;;;;;;;;;;;;1042847;28;1721;-49
2023/03/12 00:13:41;;;;;;;;;;;;;;;;;;1041547;28;3770;-49
2023/03/12 00:14:11;;;;;;;;;;;;;;;;;;1042227;28;4051;-48
2023/03/12 00:14:41;;;;;;;;;;;;;;;;;;1038478;28;1668;-48
2023/03/12 00:15:11;;;;;;;;;;;;;;;;;;1037312;28;3798;-49
2023/03/12 00:15:42;;;;;;;;;;;;;;;;;;1038318;28;1860;-50
2023/03/12 00:16:13;;;;;;;;;;;;;;;;;;1037525;28;4083;-48
2023/03/12 00:16:44;;;;;;;;;;;;;;;;;;1042281;28;2609;-50
2023/03/12 00:17:14;;;;;;;;;;;;;;;;;;1043940;28;3901;-52
2023/03/12 00:17:44;;;;;;;;;;;;;;;;;;1041710;28;2778;-48
2023/03/12 00:18:15;;;;;;;;;;;;;;;;;;1042210;28;4113;-50
2023/03/12 00:18:47;;;;;;;;;;;;;;;;;;1042720;28;2387;-51
2023/03/12 00:19:17;;;;;;;;;;;;;;;;;;1042086;28;4018;-48
2023/03/12 00:19:51;;;;;;;;;;;;;;;;;;1042875;28;1916;-48
2023/03/12 00:20:22;;;;;;;;;;;;;;;;;;1042235;28;4082;-48
2023/03/12 00:20:53;;;;;;;;;;;;;;;;;;1042578;28;1858;-48
2023/03/12 00:21:23;;;;;;;;;;;;;;;;;;1041718;28;4030;-49
2023/03/12 00:21:54;;;;;;;;;;;;;;;;;;1043058;28;1726;-50
2023/03/12 00:22:24;;;;;;;;;;;;;;;;;;1042734;28;4234;-49
2023/03/12 00:22:54;;;;;;;;;;;;;;;;;;1042802;28;1969;-50
2023/03/12 00:23:25;;;;;;;;;;;;;;;;;;1041075;28;4099;-49
2023/03/12 00:23:55;;;;;;;;;;;;;;;;;;1038275;28;2230;-48
2023/03/12 00:24:25;;;;;;;;;;;;;;;;;;1037197;28;4015;-49
2023/03/12 00:24:56;;;;;;;;;;;;;;;;;;1038840;28;3085;-49
2023/03/12 00:25:26;;;;;;;;;;;;;;;;;;1037643;28;3871;-50
2023/03/12 00:26:00;;;;;;;;;;;;;;;;;;1041738;28;2311;-47
2023/03/12 00:26:30;;;;;;;;;;;;;;;;;;1041428;28;4061;-47
2023/03/12 00:27:01;;;;;;;;;;;;;;;;;;1041978;28;2300;-49
2023/03/12 00:27:31;;;;;;;;;;;;;;;;;;1038693;28;4040;-49
2023/03/12 00:28:01;;;;;;;;;;;;;;;;;;1037891;28;1891;-50
2023/03/12 00:28:32;;;;;;;;;;;;;;;;;;1037691;28;3753;-48
2023/03/12 00:29:02;;;;;;;;;;;;;;;;;;1038221;28;2719;-49
2023/03/12 00:29:32;;;;;;;;;;;;;;;;;;1037169;28;4405;-49
2023/03/12 00:30:03;;;;;;;;;;;;;;;;;;1038090;28;2797;-50
2023/03/12 00:30:34;;;;;;;;;;;;;;;;;;1037610;28;3891;-49
2023/03/12 00:31:12;;;;;;;;;;;;;;;;;;1038740;28;2776;-49
2023/03/12 00:31:42;;;;;;;;;;;;;;;;;;1042494;28;3841;-49
2023/03/12 00:32:13;;;;;;;;;;;;;;;;;;1040776;28;3985;-48
2023/03/12 00:32:43;;;;;;;;;;;;;;;;;;1040575;28;2956;-49
2023/03/12 00:33:14;;;;;;;;;;;;;;;;;;1041459;28;4712;-51
2023/03/12 00:33:44;;;;;;;;;;;;;;;;;;1037246;28;2694;-50
2023/03/12 00:34:15;;;;;;;;;;;;;;;;;;1039230;28;4126;-49
2023/03/12 00:34:51;;;;;;;;;;;;;;;;;;1043838;28;3095;-49
2023/03/12 00:35:21;;;;;;;;;;;;;;;;;;1042260;28;4050;-51
2023/03/12 00:35:52;;;;;;;;;;;;;;;;;;1041018;28;2736;-48
2023/03/12 00:36:25;;;;;;;;;;;;;;;;;;1041941;28;4234;-51
2023/03/12 00:36:55;;;;;;;;;;;;;;;;;;1042602;28;1775;-49
2023/03/12 00:37:26;;;;;;;;;;;;;;;;;;1040551;28;4015;-48
2023/03/12 00:37:56;;;;;;;;;;;;;;;;;;1041570;28;3087;-48
2023/03/12 00:38:26;;;;;;;;;;;;;;;;;;1043032;28;4124;-50
2023/03/12 00:38:57;;;;;;;;;;;;;;;;;;1042382;28;1891;-51
2023/03/12 00:39:27;;;;;;;;;;;;;;;;;;1041424;28;3879;-49
2023/03/12 00:39:58;;;;;;;;;;;;;;;;;;1042985;28;1895;-49
2023/03/12 00:40:28;;;;;;;;;;;;;;;;;;1042142;28;3896;-49
2023/03/12 00:40:59;;;;;;;;;;;;;;;;;;1041655;28;1652;-48
2023/03/12 00:41:29;;;;;;;;;;;;;;;;;;1041778;28;3756;-50
2023/03/12 00:42:00;;;;;;;;;;;;;;;;;;1041155;28;2861;-49
2023/03/12 00:42:30;;;;;;;;;;;;;;;;;;1032120;28;3986;-51
2023/03/12 00:43:00;;;;;;;;;;;;;;;;;;1032840;28;3017;-48
2023/03/12 00:43:31;;;;;;;;;;;;;;;;;;1035440;28;4124;-48
2023/03/12 00:44:01;;;;;;;;;;;;;;;;;;1033663;28;1779;-48
2023/03/12 00:44:31;;;;;;;;;;;;;;;;;;1041434;28;4069;-50
2023/03/12 00:45:01;;;;;;;;;;;;;;;;;;1042308;28;2818;-49
2023/03/12 00:45:32;;;;;;;;;;;;;;;;;;1039651;28;3957;-48
2023/03/12 00:46:02;;;;;;;;;;;;;;;;;;1041999;28;1832;-49
2023/03/12 00:46:32;;;;;;;;;;;;;;;;;;1041979;28;3809;-49
2023/03/12 00:47:03;;;;;;;;;;;;;;;;;;1043879;28;1812;-48
2023/03/12 00:47:33;;;;;;;;;;;;;;;;;;1042256;28;3881;-47
2023/03/12 00:48:03;;;;;;;;;;;;;;;;;;1041676;28;2710;-51
2023/03/12 00:48:33;;;;;;;;;;;;;;;;;;1041887;28;3824;-50
2023/03/12 00:49:04;;;;;;;;;;;;;;;;;;1043615;28;1695;-49
2023/03/12 00:49:34;;;;;;;;;;;;;;;;;;1038371;28;4651;-50
2023/03/12 00:50:04;;;;;;;;;;;;;;;;;;1041980;28;2741;-49
2023/03/12 00:50:35;;;;;;;;;;;;;;;;;;1042372;28;3814;-49
2023/03/12 00:51:05;;;;;;;;;;;;;;;;;;1042232;28;1750;-50
2023/03/12 00:51:36;;;;;;;;;;;;;;;;;;1041336;28;4051;-49
2023/03/12 00:52:06;;;;;;;;;;;;;;;;;;1042947;28;1898;-51
2023/03/12 00:52:36;;;;;;;;;;;;;;;;;;1042484;28;4014;-49
2023/03/12 00:53:07;;;;;;;;;;;;;;;;;;1040768;28;2770;-49
2023/03/12 00:53:37;;;;;;;;;;;;;;;;;;1041278;28;4010;-48
2023/03/12 00:54:08;;;;;;;;;;;;;;;;;;1042940;28;1687;-50
2023/03/12 00:54:38;;;;;;;;;;;;;;;;;;1041983;28;3960;-49
2023/03/12 00:55:09;;;;;;;;;;;;;;;;;;1042810;28;1686;-48
2023/03/12 00:55:39;;;;;;;;;;;;;;;;;;1041129;28;3810;-50
2023/03/12 00:56:09;;;;;;;;;;;;;;;;;;1043174;28;1990;-49
2023/03/12 00:56:39;;;;;;;;;;;;;;;;;;1037678;28;4093;-49
2023/03/12 00:57:10;;;;;;;;;;;;;;;;;;1037876;28;4091;-48
2023/03/12 00:57:40;;;;;;;;;;;;;;;;;;1036929;28;2753;-51
2023/03/12 00:58:10;;;;;;;;;;;;;;;;;;1037732;28;3881;-48
2023/03/12 00:58:41;;;;;;;;;;;;;;;;;;1038817;28;3295;-49
2023/03/12 00:59:12;;;;;;;;;;;;;;;;;;1036966;28;4066;-49
2023/03/12 00:59:42;;;;;;;;;;;;;;;;;;1037623;28;1691;-50
2023/03/12 01:00:13;;;;;;;;;;;;;;;;;;1035283;28;4157;-50
2023/03/12 01:00:43;;;;;;;;;;;;;;;;;;1037485;28;3109;-48
2023/03/12 01:01:13;;;;;;;;;;;;;;;;;;1038181;28;4160;-52
2023/03/12 01:01:44;;;;;;;;;;;;;;;;;;1037594;28;2913;-50
2023/03/12 01:02:15;;;;;;;;;;;;;;;;;;1038548;28;4064;-49
2023/03/12 01:02:45;;;;;;;;;;;;;;;;;;1038403;28;2727;-51
2023/03/12 01:03:15;;;;;;;;;;;;;;;;;;1036478;28;3779;-50
2023/03/12 01:03:46;;;;;;;;;;;;;;;;;;1037456;28;2233;-49
2023/03/12 01:04:16;;;;;;;;;;;;;;;;;;1036375;28;3794;-48
2023/03/12 01:04:46;;;;;;;;;;;;;;;;;;1038892;28;2257;-49
2023/03/12 01:05:17;;;;;;;;;;;;;;;;;;1035891;28;3891;-49
2023/03/12 01:05:52;;;;;;;;;;;;;;;;;;1038041;28;2016;-48
2023/03/12 01:06:23;;;;;;;;;;;;;;;;;;1036864;28;3943;-50
2023/03/12 01:06:54;;;;;;;;;;;;;;;;;;1035247;28;2788;-48
2023/03/12 01:07:24;;;;;;;;;;;;;;;;;;1037625;28;4041;-52
2023/03/12 01:07:54;;;;;;;;;;;;;;;;;;1037745;28;2384;-50
2023/03/12 01:08:24;;;;;;;;;;;;;;;;;;1044786;28;3882;-49
2023/03/12 01:08:55;;;;;;;;;;;;;;;;;;1045019;28;2096;-48
2023/03/12 01:09:25;;;;;;;;;;;;;;;;;;1044407;28;3881;-51
2023/03/12 01:09:55;;;;;;;;;;;;;;;;;;1046518;28;1739;-48
2023/03/12 01:10:25;;;;;;;;;;;;;;;;;;1038345;28;3930;-49
2023/03/12 01:10:56;;;;;;;;;;;;;;;;;;1038228;28;2263;-48
2023/03/12 01:11:26;;;;;;;;;;;;;;;;;;1037047;28;3871;-48
2023/03/12 01:11:56;;;;;;;;;;;;;;;;;;1037781;28;1990;-49
2023/03/12 01:12:26;;;;;;;;;;;;;;;;;;1037896;28;4032;-49
2023/03/12 01:12:57;;;;;;;;;;;;;;;;;;1038491;28;1721;-52
2023/03/12 01:13:27;;;;;;;;;;;;;;;;;;1036782;28;3769;-51
2023/03/12 01:13:58;;;;;;;;;;;;;;;;;;1038348;28;1652;-47
2023/03/12 01:14:29;;;;;;;;;;;;;;;;;;1038221;28;4247;-48
2023/03/12 01:15:00;;;;;;;;;;;;;;;;;;1038194;28;1742;-49
2023/03/12 01:15:30;;;;;;;;;;;;;;;;;;1037775;28;4034;-50
2023/03/12 01:16:00;;;;;;;;;;;;;;;;;;1036888;28;2684;-51
2023/03/12 01:16:30;;;;;;;;;;;;;;;;;;1038618;28;3966;-50
2023/03/12 01:17:01;;;;;;;;;;;;;;;;;;1036437;28;2715;-49
2023/03/12 01:17:31;;;;;;;;;;;;;;;;;;1038577;28;3869;-48
2023/03/12 01:18:01;;;;;;;;;;;;;;;;;;1036551;28;3039;-50
2023/03/12 01:18:32;;;;;;;;;;;;;;;;;;1036935;28;4020;-49
2023/03/12 01:19:02;;;;;;;;;;;;;;;;;;1039484;28;2921;-48
2023/03/12 01:19:32;;;;;;;;;;;;;;;;;;1036262;28;4090;-50
2023/03/12 01:20:04;;;;;;;;;;;;;;;;;;1038861;28;2728;-50
2023/03/12 01:20:35;;;;;;;;;;;;;;;;;;1037540;28;3712;-48
2023/03/12 01:21:05;;;;;;;;;;;;;;;;;;1037335;28;2655;-48
2023/03/12 01:21:35;;;;;;;;;;;;;;;;;;1036785;28;3866;-51
2023/03/12 01:22:06;;;;;;;;;;;;;;;;;;1038097;28;2921;-49
2023/03/12 01:22:36;;;;;;;;;;;;;;;;;;1035719;28;3997;-48
2023/03/12 01:23:06;;;;;;;;;;;;;;;;;;1038781;28;2728;-49
2023/03/12 01:23:37;;;;;;;;;;;;;;;;;;1036759;28;3842;-50
2023/03/12 01:24:07;;;;;;;;;;;;;;;;;;1036270;28;2924;-50
2023/03/12 01:24:37;;;;;;;;;;;;;;;;;;1038466;28;3756;-49
2023/03/12 01:25:07;;;;;;;;;;;;;;;;;;1037698;28;2923;-49
2023/03/12 01:25:39;;;;;;;;;;;;;;;;;;1034057;28;3854;-50
2023/03/12 01:26:09;;;;;;;;;;;;;;;;;;1038688;28;1853;-48
2023/03/12 01:26:39;;;;;;;;;;;;;;;;;;1033464;28;4799;-50
2023/03/12 01:27:10;;;;;;;;;;;;;;;;;;1034401;28;3775;-48
2023/03/12 01:27:40;;;;;;;;;;;;;;;;;;1037342;28;2839;-49
2023/03/12 01:28:10;;;;;;;;;;;;;;;;;;1037136;28;4235;-49
2023/03/12 01:28:40;;;;;;;;;;;;;;;;;;1036549;28;3371;-50
2023/03/12 01:29:11;;;;;;;;;;;;;;;;;;1036041;28;4155;-48
2023/03/12 01:29:41;;;;;;;;;;;;;;;;;;1037038;28;2827;-50
2023/03/12 01:30:11;;;;;;;;;;;;;;;;;;1035779;28;3888;-48
2023/03/12 01:30:42;;;;;;;;;;;;;;;;;;1038273;28;2090;-48
2023/03/12 01:31:14;;;;;;;;;;;;;;;;;;1037849;28;4228;-49
2023/03/12 01:31:44;;;;;;;;;;;;;;;;;;1038610;28;3247;-48
2023/03/12 01:32:15;;;;;;;;;;;;;;;;;;1036650;28;4113;-49
2023/03/12 01:32:46;;;;;;;;;;;;;;;;;;1037046;28;2843;-48
2023/03/12 01:33:17;;;;;;;;;;;;;;;;;;1037585;28;4062;-48
2023/03/12 01:33:49;;;;;;;;;;;;;;;;;;1038568;28;3001;-50
2023/03/12 01:34:19;;;;;;;;;;;;;;;;;;1037148;28;4222;-51
2023/03/12 01:34:49;;;;;;;;;;;;;;;;;;1036133;28;3160;-49
2023/03/12 01:35:19;;;;;;;;;;;;;;;;;;1038590;28;4104;-48
2023/03/12 01:35:50;;;;;;;;;;;;;;;;;;1038148;28;1812;-49
2023/03/12 01:36:24;;;;;;;;;;;;;;;;;;1038635;28;3859;-49
2023/03/12 01:36:55;;;;;;;;;;;;;;;;;;1038551;28;1759;-51
2023/03/12 01:37:25;;;;;;;;;;;;;;;;;;1038149;28;4152;-49
2023/03/12 01:37:56;;;;;;;;;;;;;;;;;;1036130;28;2885;-50
2023/03/12 01:38:26;;;;;;;;;;;;;;;;;;1035854;28;3935;-52
2023/03/12 01:38:58;;;;;;;;;;;;;;;;;;1038516;28;1787;-48
2023/03/12 01:39:28;;;;;;;;;;;;;;;;;;1038057;28;3866;-51
2023/03/12 01:39:58;;;;;;;;;;;;;;;;;;1038979;28;1692;-48
2023/03/12 01:40:31;;;;;;;;;;;;;;;;;;1038240;28;3853;-49
2023/03/12 01:41:01;;;;;;;;;;;;;;;;;;1039423;28;2548;-49
2023/03/12 01:41:32;;;;;;;;;;;;;;;;;;1036409;28;3854;-49
2023/03/12 01:42:03;;;;;;;;;;;;;;;;;;1038880;28;1996;-48
2023/03/12 01:42:33;;;;;;;;;;;;;;;;;;1039640;28;4006;-49
2023/03/12 01:43:23;;;;;;;;;;;;;;;;;;1038974;28;1674;-50
2023/03/12 01:43:54;;;;;;;;;;;;;;;;;;1042549;28;3669;-51
2023/03/12 01:44:24;;;;;;;;;;;;;;;;;;1042688;28;4116;-50
2023/03/12 01:44:56;;;;;;;;;;;;;;;;;;1042666;28;2765;-49
2023/03/12 01:45:45;;;;;;;;;;;;;;;;;;1042628;28;3904;-49
2023/03/12 01:46:15;;;;;;;;;;;;;;;;;;1041228;28;4059;-52
2023/03/12 01:46:45;;;;;;;;;;;;;;;;;;1043438;28;1742;-48
2023/03/12 01:47:15;;;;;;;;;;;;;;;;;;1041772;28;4095;-50
2023/03/12 01:47:45;;;;;;;;;;;;;;;;;;1041738;28;3362;-52
2023/03/12 01:48:17;;;;;;;;;;;;;;;;;;1041852;28;4045;-50
2023/03/12 01:48:49;;;;;;;;;;;;;;;;;;1043884;28;2895;-50
2023/03/12 01:49:22;;;;;;;;;;;;;;;;;;1042103;28;3991;-48
2023/03/12 01:49:54;;;;;;;;;;;;;;;;;;1043057;28;1699;-49
2023/03/12 01:50:24;;;;;;;;;;;;;;;;;;1042444;28;4030;-52
2023/03/12 01:50:55;;;;;;;;;;;;;;;;;;1042390;28;1898;-51
2023/03/12 01:51:26;;;;;;;;;;;;;;;;;;1040884;28;3876;-50
2023/03/12 01:51:57;;;;;;;;;;;;;;;;;;1043086;28;1913;-50
2023/03/12 01:52:32;;;;;;;;;;;;;;;;;;1046114;28;3873;-49
2023/03/12 01:53:02;;;;;;;;;;;;;;;;;;1046841;28;1700;-49
2023/03/12 01:53:33;;;;;;;;;;;;;;;;;;1046616;28;3763;-48
2023/03/12 01:54:04;;;;;;;;;;;;;;;;;;1045947;28;1864;-49
2023/03/12 01:54:44;;;;;;;;;;;;;;;;;;1038930;28;4012;-53
2023/03/12 01:55:15;;;;;;;;;;;;;;;;;;1038602;28;4032;-49
2023/03/12 01:55:45;;;;;;;;;;;;;;;;;;1038227;28;1726;-47
2023/03/12 01:56:17;;;;;;;;;;;;;;;;;;1037434;28;4039;-50
2023/03/12 01:56:48;;;;;;;;;;;;;;;;;;1039289;28;1656;-47
2023/03/12 01:57:21;;;;;;;;;;;;;;;;;;1038112;28;4184;-49
2023/03/12 01:57:53;;;;;;;;;;;;;;;;;;1039073;28;1952;-48
2023/03/12 01:58:23;;;;;;;;;;;;;;;;;;1037781;28;4028;-50
2023/03/12 01:58:56;;;;;;;;;;;;;;;;;;1038804;28;1831;-49
2023/03/12 01:59:31;;;;;;;;;;;;;;;;;;1037885;28;4071;-48
2023/03/12 02:00:07;;;;;;;;;;;;;;;;;;1038921;28;1848;-49
2023/03/12 02:00:38;;;;;;;;;;;;;;;;;;1039365;28;3764;-48
2023/03/12 02:01:08;;;;;;;;;;;;;;;;;;1038838;28;1638;-48
2023/03/12 02:01:39;;;;;;;;;;;;;;;;;;1037821;28;3973;-48
2023/03/12 02:02:10;;;;;;;;;;;;;;;;;;1038606;28;1753;-49
2023/03/12 02:02:41;;;;;;;;;;;;;;;;;;1038493;28;3762;-49
2023/03/12 02:03:12;;;;;;;;;;;;;;;;;;1037675;28;3939;-49
2023/03/12 02:03:44;;;;;;;;;;;;;;;;;;1040471;28;2504;-49
2023/03/12 02:04:16;;;;;;;;;;;;;;;;;;1036520;28;3860;-50
2023/03/12 02:04:46;;;;;;;;;;;;;;;;;;1038927;28;2101;-48
2023/03/12 02:05:22;;;;;;;;;;;;;;;;;;1037982;28;3961;-49
2023/03/12 02:05:54;;;;;;;;;;;;;;;;;;1038578;28;3070;-52
2023/03/12 02:06:48;;;;;;;;;;;;;;;;;;1036999;28;4040;-49
2023/03/12 02:07:18;;;;;;;;;;;;;;;;;;1037256;28;4076;-50
2023/03/12 02:07:48;;;;;;;;;;;;;;;;;;1038528;28;1924;-49
2023/03/12 02:08:19;;;;;;;;;;;;;;;;;;1036926;28;3797;-49
2023/03/12 02:08:49;;;;;;;;;;;;;;;;;;1038938;28;1922;-48
2023/03/12 02:09:20;;;;;;;;;;;;;;;;;;1037532;28;3886;-49
2023/03/12 02:09:50;;;;;;;;;;;;;;;;;;1037645;28;3926;-49
2023/03/12 02:10:21;;;;;;;;;;;;;;;;;;1037697;28;4044;-48
2023/03/12 02:10:51;;;;;;;;;;;;;;;;;;1038915;28;1588;-48
2023/03/12 02:11:21;;;;;;;;;;;;;;;;;;1037813;28;4108;-51
2023/03/12 02:11:52;;;;;;;;;;;;;;;;;;1037752;28;2241;-50
2023/03/12 02:12:22;;;;;;;;;;;;;;;;;;1038283;28;4081;-49
2023/03/12 02:12:52;;;;;;;;;;;;;;;;;;1038767;28;1954;-49
2023/03/12 02:13:23;;;;;;;;;;;;;;;;;;1037732;28;4433;-50
2023/03/12 02:13:53;;;;;;;;;;;;;;;;;;1038070;28;1949;-49
2023/03/12 02:14:23;;;;;;;;;;;;;;;;;;1037338;28;4107;-50
2023/03/12 02:14:53;;;;;;;;;;;;;;;;;;1038472;28;1870;-51
2023/03/12 02:15:24;;;;;;;;;;;;;;;;;;1037826;28;4056;-49
2023/03/12 02:15:54;;;;;;;;;;;;;;;;;;1038842;28;1782;-49
2023/03/12 02:16:25;;;;;;;;;;;;;;;;;;1038694;28;3852;-48
2023/03/12 02:16:55;;;;;;;;;;;;;;;;;;1044587;28;1835;-48
2023/03/12 02:17:25;;;;;;;;;;;;;;;;;;1045476;28;3946;-51
2023/03/12 02:17:55;;;;;;;;;;;;;;;;;;1046469;28;1702;-53
2023/03/12 02:18:26;;;;;;;;;;;;;;;;;;1041436;28;3876;-49
2023/03/12 02:18:58;;;;;;;;;;;;;;;;;;1038323;28;1877;-48
2023/03/12 02:19:34;;;;;;;;;;;;;;;;;;1035824;28;3866;-49
2023/03/12 02:20:22;;;;;;;;;;;;;;;;;;1037166;28;2442;-50
2023/03/12 02:20:52;;;;;;;;;;;;;;;;;;1038597;28;3822;-49
2023/03/12 02:21:24;;;;;;;;;;;;;;;;;;1036074;28;4250;-52
2023/03/12 02:21:55;;;;;;;;;;;;;;;;;;1038712;28;1647;-48
2023/03/12 02:22:26;;;;;;;;;;;;;;;;;;1037707;28;4037;-50
2023/03/12 02:23:01;;;;;;;;;;;;;;;;;;1038513;28;1847;-48
2023/03/12 02:23:44;;;;;;;;;;;;;;;;;;1037312;28;3803;-50
2023/03/12 02:24:32;;;;;;;;;;;;;;;;;;1038440;28;3878;-48
2023/03/12 02:25:03;;;;;;;;;;;;;;;;;;1039027;28;2093;-49
2023/03/12 02:25:35;;;;;;;;;;;;;;;;;;1036955;28;4054;-50
2023/03/12 02:26:06;;;;;;;;;;;;;;;;;;1038777;28;2801;-49
2023/03/12 02:26:37;;;;;;;;;;;;;;;;;;1036476;28;3958;-50
2023/03/12 02:27:08;;;;;;;;;;;;;;;;;;1037845;28;1842;-49
2023/03/12 02:27:39;;;;;;;;;;;;;;;;;;1037186;28;3814;-49
2023/03/12 02:28:11;;;;;;;;;;;;;;;;;;1037641;28;2889;-49
2023/03/12 02:28:43;;;;;;;;;;;;;;;;;;1039000;28;3843;-50
2023/03/12 02:29:13;;;;;;;;;;;;;;;;;;1037187;28;3890;-52
2023/03/12 02:29:44;;;;;;;;;;;;;;;;;;1034060;28;2676;-48
2023/03/12 02:30:15;;;;;;;;;;;;;;;;;;1032468;28;4323;-50
2023/03/12 02:30:47;;;;;;;;;;;;;;;;;;1044539;28;3238;-47
2023/03/12 02:31:19;;;;;;;;;;;;;;;;;;1044164;28;4063;-48
2023/03/12 02:31:53;;;;;;;;;;;;;;;;;;1040330;28;2662;-49
2023/03/12 02:32:25;;;;;;;;;;;;;;;;;;1039719;28;3821;-51
2023/03/12 02:32:56;;;;;;;;;;;;;;;;;;1034512;28;1792;-50
2023/03/12 02:33:27;;;;;;;;;;;;;;;;;;1034000;28;4081;-51
2023/03/12 02:33:57;;;;;;;;;;;;;;;;;;1034378;28;2266;-48
2023/03/12 02:34:27;;;;;;;;;;;;;;;;;;1034272;28;3813;-48
2023/03/12 02:34:58;;;;;;;;;;;;;;;;;;1035022;28;1933;-48
2023/03/12 02:35:29;;;;;;;;;;;;;;;;;;1034160;28;4046;-49
2023/03/12 02:35:59;;;;;;;;;;;;;;;;;;1034843;28;1734;-48
2023/03/12 02:36:29;;;;;;;;;;;;;;;;;;1033338;28;3869;-49
2023/03/12 02:37:00;;;;;;;;;;;;;;;;;;1034200;28;1843;-50
2023/03/12 02:37:30;;;;;;;;;;;;;;;;;;1032571;28;3908;-49
2023/03/12 02:38:00;;;;;;;;;;;;;;;;;;1034362;28;1897;-50
2023/03/12 02:38:33;;;;;;;;;;;;;;;;;;1033894;28;4937;-51
2023/03/12 02:39:04;;;;;;;;;;;;;;;;;;1033361;28;3084;-50
2023/03/12 02:39:35;;;;;;;;;;;;;;;;;;1033737;28;4014;-51
2023/03/12 02:40:12;;;;;;;;;;;;;;;;;;1033289;28;2414;-49
2023/03/12 02:40:44;;;;;;;;;;;;;;;;;;1033275;28;3882;-49
2023/03/12 02:41:20;;;;;;;;;;;;;;;;;;1033369;28;3813;-49
2023/03/12 02:41:52;;;;;;;;;;;;;;;;;;1038810;28;1631;-49
2023/03/12 02:42:23;;;;;;;;;;;;;;;;;;1036866;28;4134;-50
2023/03/12 02:42:54;;;;;;;;;;;;;;;;;;1036881;28;2697;-49
2023/03/12 02:43:24;;;;;;;;;;;;;;;;;;1034683;28;4077;-48
2023/03/12 02:43:57;;;;;;;;;;;;;;;;;;1034464;28;2428;-51
2023/03/12 02:44:32;;;;;;;;;;;;;;;;;;1033428;28;4000;-48
2023/03/12 02:45:03;;;;;;;;;;;;;;;;;;1034768;28;1724;-49
2023/03/12 02:45:34;;;;;;;;;;;;;;;;;;1036694;28;4246;-48
2023/03/12 02:46:05;;;;;;;;;;;;;;;;;;1038328;28;2240;-49
2023/03/12 02:46:40;;;;;;;;;;;;;;;;;;1037773;28;3851;-51
2023/03/12 02:47:10;;;;;;;;;;;;;;;;;;1037659;28;3924;-50
2023/03/12 02:47:40;;;;;;;;;;;;;;;;;;1038452;28;1779;-49
2023/03/12 02:48:11;;;;;;;;;;;;;;;;;;1038106;28;3795;-48
2023/03/12 02:48:41;;;;;;;;;;;;;;;;;;1038577;28;1725;-48
2023/03/12 02:49:12;;;;;;;;;;;;;;;;;;1038635;28;4044;-49
2023/03/12 02:49:42;;;;;;;;;;;;;;;;;;1038259;28;2298;-49
2023/03/12 02:50:13;;;;;;;;;;;;;;;;;;1038059;28;3892;-49
2023/03/12 02:50:43;;;;;;;;;;;;;;;;;;1039071;28;2049;-49
2023/03/12 02:51:13;;;;;;;;;;;;;;;;;;1037291;28;3780;-48
2023/03/12 02:51:44;;;;;;;;;;;;;;;;;;1039521;28;1871;-49
2023/03/12 02:52:15;;;;;;;;;;;;;;;;;;1040372;28;4198;-53
2023/03/12 02:52:45;;;;;;;;;;;;;;;;;;1043111;28;2129;-48
2023/03/12 02:53:15;;;;;;;;;;;;;;;;;;1041735;28;4092;-48
2023/03/12 02:53:46;;;;;;;;;;;;;;;;;;1040939;28;3059;-50
2023/03/12 02:54:17;;;;;;;;;;;;;;;;;;1043342;28;4072;-49
2023/03/12 02:54:47;;;;;;;;;;;;;;;;;;1042879;28;2325;-50
2023/03/12 02:55:17;;;;;;;;;;;;;;;;;;1042170;28;3876;-48
2023/03/12 02:55:48;;;;;;;;;;;;;;;;;;1043180;28;2762;-49
2023/03/12 02:56:18;;;;;;;;;;;;;;;;;;1042998;28;4042;-49
2023/03/12 02:56:48;;;;;;;;;;;;;;;;;;1042935;28;2334;-51
2023/03/12 02:57:19;;;;;;;;;;;;;;;;;;1042626;28;3882;-49
2023/03/12 02:57:49;;;;;;;;;;;;;;;;;;1043691;28;1693;-49
2023/03/12 02:58:20;;;;;;;;;;;;;;;;;;1042249;28;3850;-48
2023/03/12 02:58:50;;;;;;;;;;;;;;;;;;1043529;28;1695;-49
2023/03/12 02:59:21;;;;;;;;;;;;;;;;;;1042320;28;4101;-49
2023/03/12 02:59:51;;;;;;;;;;;;;;;;;;1042544;28;3026;-49
2023/03/12 03:00:22;;;;;;;;;;;;;;;;;;1041068;28;3951;-49
2023/03/12 03:00:52;;;;;;;;;;;;;;;;;;1042717;28;2857;-50
2023/03/12 03:01:22;;;;;;;;;;;;;;;;;;1041990;28;3897;-50
2023/03/12 03:01:53;;;;;;;;;;;;;;;;;;1044369;28;2294;-49
2023/03/12 03:02:24;;;;;;;;;;;;;;;;;;1042345;28;3865;-49
2023/03/12 03:02:54;;;;;;;;;;;;;;;;;;1042832;28;1487;-48
2023/03/12 03:03:24;;;;;;;;;;;;;;;;;;1041470;28;3930;-51
2023/03/12 03:03:55;;;;;;;;;;;;;;;;;;1042808;28;3067;-51
2023/03/12 03:04:26;;;;;;;;;;;;;;;;;;1040942;28;4014;-51
2023/03/12 03:04:56;;;;;;;;;;;;;;;;;;1039107;28;1886;-50
2023/03/12 03:05:27;;;;;;;;;;;;;;;;;;1040745;28;3881;-49
2023/03/12 03:05:57;;;;;;;;;;;;;;;;;;1042475;28;2286;-48
2023/03/12 03:06:27;;;;;;;;;;;;;;;;;;1041816;28;3864;-49
2023/03/12 03:06:58;;;;;;;;;;;;;;;;;;1044149;28;3104;-50
2023/03/12 03:07:28;;;;;;;;;;;;;;;;;;1038709;28;3896;-48
2023/03/12 03:07:59;;;;;;;;;;;;;;;;;;1040171;28;2760;-51
2023/03/12 03:08:29;;;;;;;;;;;;;;;;;;1037230;28;4131;-49
2023/03/12 03:08:59;;;;;;;;;;;;;;;;;;1038462;28;2992;-47
2023/03/12 03:09:30;;;;;;;;;;;;;;;;;;1036996;28;3959;-50
2023/03/12 03:10:03;;;;;;;;;;;;;;;;;;1042954;28;2211;-49
2023/03/12 03:10:33;;;;;;;;;;;;;;;;;;1040813;28;3840;-51
2023/03/12 03:11:03;;;;;;;;;;;;;;;;;;1042453;28;2892;-48
2023/03/12 03:11:34;;;;;;;;;;;;;;;;;;1041498;28;4005;-48
2023/03/12 03:12:04;;;;;;;;;;;;;;;;;;1043887;28;1973;-50
2023/03/12 03:12:35;;;;;;;;;;;;;;;;;;1041730;28;3989;-51
2023/03/12 03:13:05;;;;;;;;;;;;;;;;;;1041373;28;2021;-48
2023/03/12 03:13:35;;;;;;;;;;;;;;;;;;1042995;28;3847;-50
2023/03/12 03:14:06;;;;;;;;;;;;;;;;;;1043275;28;2043;-47
2023/03/12 03:14:36;;;;;;;;;;;;;;;;;;1040176;28;4005;-49
2023/03/12 03:15:06;;;;;;;;;;;;;;;;;;1041802;28;2680;-49
2023/03/12 03:15:37;;;;;;;;;;;;;;;;;;1042343;28;5399;-51
2023/03/12 03:16:08;;;;;;;;;;;;;;;;;;1043217;28;1746;-50
2023/03/12 03:16:38;;;;;;;;;;;;;;;;;;1042888;28;3971;-51
2023/03/12 03:17:08;;;;;;;;;;;;;;;;;;1042422;28;2227;-49
2023/03/12 03:17:38;;;;;;;;;;;;;;;;;;1042609;28;4085;-48
2023/03/12 03:18:09;;;;;;;;;;;;;;;;;;1043745;28;1426;-50
2023/03/12 03:18:39;;;;;;;;;;;;;;;;;;1042209;28;4029;-49
2023/03/12 03:19:10;;;;;;;;;;;;;;;;;;1043679;28;1828;-48
2023/03/12 03:19:40;;;;;;;;;;;;;;;;;;1043102;28;3669;-49
2023/03/12 03:20:10;;;;;;;;;;;;;;;;;;1043234;28;3940;-49
2023/03/12 03:20:43;;;;;;;;;;;;;;;;;;1042370;28;2648;-50
2023/03/12 03:21:15;;;;;;;;;;;;;;;;;;1041220;28;4607;-50
2023/03/12 03:21:45;;;;;;;;;;;;;;;;;;1043422;28;1803;-48
2023/03/12 03:22:16;;;;;;;;;;;;;;;;;;1042333;28;4361;-49
2023/03/12 03:22:46;;;;;;;;;;;;;;;;;;1042104;28;2224;-49
2023/03/12 03:23:16;;;;;;;;;;;;;;;;;;1045373;28;4059;-51
2023/03/12 03:23:47;;;;;;;;;;;;;;;;;;1046396;28;2871;-49
2023/03/12 03:24:18;;;;;;;;;;;;;;;;;;1046682;28;4167;-48
2023/03/12 03:24:48;;;;;;;;;;;;;;;;;;1044622;28;2178;-48
2023/03/12 03:25:21;;;;;;;;;;;;;;;;;;1042257;28;4041;-48
2023/03/12 03:25:51;;;;;;;;;;;;;;;;;;1041872;28;2713;-50
2023/03/12 03:26:22;;;;;;;;;;;;;;;;;;1039854;28;4109;-49
2023/03/12 03:26:53;;;;;;;;;;;;;;;;;;1042382;28;2282;-47
2023/03/12 03:27:23;;;;;;;;;;;;;;;;;;1042808;28;4122;-49
2023/03/12 03:27:54;;;;;;;;;;;;;;;;;;1042603;28;2698;-50
2023/03/12 03:28:25;;;;;;;;;;;;;;;;;;1041128;28;4038;-49
2023/03/12 03:28:55;;;;;;;;;;;;;;;;;;1043045;28;2884;-51
2023/03/12 03:29:26;;;;;;;;;;;;;;;;;;1042520;28;4036;-48
2023/03/12 03:29:56;;;;;;;;;;;;;;;;;;1043119;28;2432;-49
2023/03/12 03:30:26;;;;;;;;;;;;;;;;;;1041067;28;4225;-49
2023/03/12 03:30:59;;;;;;;;;;;;;;;;;;1038368;28;2722;-50
2023/03/12 03:31:29;;;;;;;;;;;;;;;;;;1037419;28;3973;-49
2023/03/12 03:32:00;;;;;;;;;;;;;;;;;;1037664;28;2718;-48
2023/03/12 03:32:30;;;;;;;;;;;;;;;;;;1039226;28;3872;-48
2023/03/12 03:33:00;;;;;;;;;;;;;;;;;;1043212;28;1731;-47
2023/03/12 03:33:31;;;;;;;;;;;;;;;;;;1039451;28;3772;-52
2023/03/12 03:34:02;;;;;;;;;;;;;;;;;;1037811;28;3047;-49
2023/03/12 03:34:32;;;;;;;;;;;;;;;;;;1036968;28;3762;-49
2023/03/12 03:35:03;;;;;;;;;;;;;;;;;;1038639;28;1958;-48
2023/03/12 03:35:33;;;;;;;;;;;;;;;;;;1036043;28;4004;-49
2023/03/12 03:36:04;;;;;;;;;;;;;;;;;;1040617;28;2988;-49
2023/03/12 03:36:35;;;;;;;;;;;;;;;;;;1040909;28;4013;-51